sensor_id;sensor_type;location;lat;lon;timestamp;P1;durP1;ratioP1;P2;durP2;ratioP2
3257;SDS011;1641;51.306;12.384;2024-03-02T00:00:44;59.03;;;31.20;;
3257;SDS011;1641;51.306;12.384;2024-03-02T00:03:14;66.60;;;31.38;;
3257;SDS011;1641;51.306;12.384;2024-03-02T00:05:39;60.33;;;29.88;;
3257;SDS011;1641;51.306;12.384;2024-03-02T00:08:05;59.90;;;29.50;;
3257;SDS011;1641;51.306;12.384;2024-03-02T00:10:38;54.95;;;28.95;;
3257;SDS011;1641;51.306;12.384;2024-03-02T00:13:10;57.45;;;29.55;;
3257;SDS011;1641;51.306;12.384;2024-03-02T00:15:41;61.95;;;30.00;;
3257;SDS011;1641;51.306;12.384;2024-03-02T00:18:18;60.58;;;29.73;;
3257;SDS011;1641;51.306;12.384;2024-03-02T00:20:45;58.70;;;29.23;;
3257;SDS011;1641;51.306;12.384;2024-03-02T00:23:10;62.75;;;28.55;;
3257;SDS011;1641;51.306;12.384;2024-03-02T00:25:48;53.88;;;28.25;;
3257;SDS011;1641;51.306;12.384;2024-03-02T00:28:20;57.92;;;28.02;;
3257;SDS011;1641;51.306;12.384;2024-03-02T00:30:51;63.72;;;29.20;;
3257;SDS011;1641;51.306;12.384;2024-03-02T00:33:23;59.30;;;29.13;;
3257;SDS011;1641;51.306;12.384;2024-03-02T00:36:02;62.95;;;30.02;;
3257;SDS011;1641;51.306;12.384;2024-03-02T00:38:32;60.45;;;28.35;;
3257;SDS011;1641;51.306;12.384;2024-03-02T00:41:04;59.78;;;28.77;;
3257;SDS011;1641;51.306;12.384;2024-03-02T00:46:35;56.25;;;28.10;;
3257;SDS011;1641;51.306;12.384;2024-03-02T00:49:02;53.88;;;29.10;;
3257;SDS011;1641;51.306;12.384;2024-03-02T00:51:31;60.60;;;28.42;;
3257;SDS011;1641;51.306;12.384;2024-03-02T00:54:04;53.70;;;28.17;;
3257;SDS011;1641;51.306;12.384;2024-03-02T00:56:31;59.45;;;27.83;;
3257;SDS011;1641;51.306;12.384;2024-03-02T00:59:00;52.28;;;27.08;;
3257;SDS011;1641;51.306;12.384;2024-03-02T01:01:29;50.72;;;27.98;;
3257;SDS011;1641;51.306;12.384;2024-03-02T01:03:54;57.75;;;28.13;;
3257;SDS011;1641;51.306;12.384;2024-03-02T01:06:19;57.83;;;26.65;;
3257;SDS011;1641;51.306;12.384;2024-03-02T01:08:46;49.70;;;27.77;;
3257;SDS011;1641;51.306;12.384;2024-03-02T01:11:15;56.97;;;27.88;;
3257;SDS011;1641;51.306;12.384;2024-03-02T01:13:40;56.03;;;28.27;;
3257;SDS011;1641;51.306;12.384;2024-03-02T01:16:05;53.15;;;27.17;;
3257;SDS011;1641;51.306;12.384;2024-03-02T01:18:31;55.15;;;29.15;;
3257;SDS011;1641;51.306;12.384;2024-03-02T01:20:57;48.85;;;27.75;;
3257;SDS011;1641;51.306;12.384;2024-03-02T01:23:23;54.97;;;27.02;;
3257;SDS011;1641;51.306;12.384;2024-03-02T01:25:49;51.60;;;27.05;;
3257;SDS011;1641;51.306;12.384;2024-03-02T01:28:15;52.50;;;26.30;;
3257;SDS011;1641;51.306;12.384;2024-03-02T01:30:40;57.10;;;28.00;;
3257;SDS011;1641;51.306;12.384;2024-03-02T01:33:05;51.33;;;25.58;;
3257;SDS011;1641;51.306;12.384;2024-03-02T01:35:31;48.38;;;25.48;;
3257;SDS011;1641;51.306;12.384;2024-03-02T01:37:57;49.35;;;24.45;;
3257;SDS011;1641;51.306;12.384;2024-03-02T01:40:22;51.88;;;25.50;;
3257;SDS011;1641;51.306;12.384;2024-03-02T01:42:51;49.35;;;26.33;;
3257;SDS011;1641;51.306;12.384;2024-03-02T01:45:17;51.67;;;26.27;;
3257;SDS011;1641;51.306;12.384;2024-03-02T01:47:42;48.63;;;25.85;;
3257;SDS011;1641;51.306;12.384;2024-03-02T01:50:07;48.55;;;25.40;;
3257;SDS011;1641;51.306;12.384;2024-03-02T01:52:36;49.38;;;25.30;;
3257;SDS011;1641;51.306;12.384;2024-03-02T01:55:02;51.83;;;26.48;;
3257;SDS011;1641;51.306;12.384;2024-03-02T01:57:27;46.83;;;25.38;;
3257;SDS011;1641;51.306;12.384;2024-03-02T01:59:52;48.70;;;25.48;;
3257;SDS011;1641;51.306;12.384;2024-03-02T02:02:18;53.78;;;24.73;;
3257;SDS011;1641;51.306;12.384;2024-03-02T02:04:43;46.40;;;25.63;;
3257;SDS011;1641;51.306;12.384;2024-03-02T02:07:09;51.58;;;24.60;;
3257;SDS011;1641;51.306;12.384;2024-03-02T02:09:35;44.85;;;24.35;;
3257;SDS011;1641;51.306;12.384;2024-03-02T02:12:00;47.65;;;24.40;;
3257;SDS011;1641;51.306;12.384;2024-03-02T02:14:26;46.65;;;24.63;;
3257;SDS011;1641;51.306;12.384;2024-03-02T02:16:51;42.95;;;23.63;;
3257;SDS011;1641;51.306;12.384;2024-03-02T02:19:17;48.47;;;25.23;;
3257;SDS011;1641;51.306;12.384;2024-03-02T02:21:42;41.28;;;23.75;;
3257;SDS011;1641;51.306;12.384;2024-03-02T02:24:08;47.40;;;23.85;;
3257;SDS011;1641;51.306;12.384;2024-03-02T02:26:33;44.72;;;23.63;;
3257;SDS011;1641;51.306;12.384;2024-03-02T02:28:58;47.80;;;24.98;;
3257;SDS011;1641;51.306;12.384;2024-03-02T02:31:23;48.40;;;24.27;;
3257;SDS011;1641;51.306;12.384;2024-03-02T02:33:49;44.25;;;23.35;;
3257;SDS011;1641;51.306;12.384;2024-03-02T02:36:14;44.67;;;24.30;;
3257;SDS011;1641;51.306;12.384;2024-03-02T02:38:43;40.50;;;22.55;;
3257;SDS011;1641;51.306;12.384;2024-03-02T02:41:11;44.00;;;23.15;;
3257;SDS011;1641;51.306;12.384;2024-03-02T02:43:37;37.55;;;22.42;;
3257;SDS011;1641;51.306;12.384;2024-03-02T02:46:04;43.58;;;22.00;;
3257;SDS011;1641;51.306;12.384;2024-03-02T02:48:30;48.47;;;23.63;;
3257;SDS011;1641;51.306;12.384;2024-03-02T02:50:55;43.78;;;23.30;;
3257;SDS011;1641;51.306;12.384;2024-03-02T02:53:20;39.13;;;23.40;;
3257;SDS011;1641;51.306;12.384;2024-03-02T02:55:45;45.95;;;22.23;;
3257;SDS011;1641;51.306;12.384;2024-03-02T02:58:10;42.88;;;21.35;;
3257;SDS011;1641;51.306;12.384;2024-03-02T03:00:36;38.28;;;21.65;;
3257;SDS011;1641;51.306;12.384;2024-03-02T03:03:01;42.70;;;20.55;;
3257;SDS011;1641;51.306;12.384;2024-03-02T03:05:27;37.03;;;20.35;;
3257;SDS011;1641;51.306;12.384;2024-03-02T03:07:52;43.53;;;21.77;;
3257;SDS011;1641;51.306;12.384;2024-03-02T03:10:18;38.55;;;21.40;;
3257;SDS011;1641;51.306;12.384;2024-03-02T03:12:43;40.60;;;20.40;;
3257;SDS011;1641;51.306;12.384;2024-03-02T03:15:09;37.08;;;21.20;;
3257;SDS011;1641;51.306;12.384;2024-03-02T03:17:35;35.42;;;20.98;;
3257;SDS011;1641;51.306;12.384;2024-03-02T03:20:02;38.97;;;20.45;;
3257;SDS011;1641;51.306;12.384;2024-03-02T03:22:29;38.15;;;20.52;;
3257;SDS011;1641;51.306;12.384;2024-03-02T03:24:55;38.08;;;20.73;;
3257;SDS011;1641;51.306;12.384;2024-03-02T03:27:20;39.35;;;20.20;;
3257;SDS011;1641;51.306;12.384;2024-03-02T03:29:45;34.85;;;18.67;;
3257;SDS011;1641;51.306;12.384;2024-03-02T03:32:11;31.05;;;18.42;;
3257;SDS011;1641;51.306;12.384;2024-03-02T03:34:36;35.17;;;19.60;;
3257;SDS011;1641;51.306;12.384;2024-03-02T03:37:02;32.28;;;18.15;;
3257;SDS011;1641;51.306;12.384;2024-03-02T03:39:27;33.13;;;19.33;;
3257;SDS011;1641;51.306;12.384;2024-03-02T03:41:53;40.60;;;20.80;;
3257;SDS011;1641;51.306;12.384;2024-03-02T03:44:18;35.75;;;18.92;;
3257;SDS011;1641;51.306;12.384;2024-03-02T03:46:44;33.63;;;18.38;;
3257;SDS011;1641;51.306;12.384;2024-03-02T03:49:09;33.00;;;17.77;;
3257;SDS011;1641;51.306;12.384;2024-03-02T03:51:34;38.40;;;19.15;;
3257;SDS011;1641;51.306;12.384;2024-03-02T03:54:00;33.40;;;18.95;;
3257;SDS011;1641;51.306;12.384;2024-03-02T03:56:25;39.47;;;20.38;;
3257;SDS011;1641;51.306;12.384;2024-03-02T03:58:50;32.63;;;18.17;;
3257;SDS011;1641;51.306;12.384;2024-03-02T04:01:16;39.45;;;21.10;;
3257;SDS011;1641;51.306;12.384;2024-03-02T04:03:41;37.05;;;19.67;;
3257;SDS011;1641;51.306;12.384;2024-03-02T04:06:06;34.35;;;19.85;;
3257;SDS011;1641;51.306;12.384;2024-03-02T04:08:31;35.70;;;19.65;;
3257;SDS011;1641;51.306;12.384;2024-03-02T04:10:57;35.55;;;18.60;;
3257;SDS011;1641;51.306;12.384;2024-03-02T04:13:22;36.50;;;19.88;;
3257;SDS011;1641;51.306;12.384;2024-03-02T04:15:47;37.67;;;19.65;;
3257;SDS011;1641;51.306;12.384;2024-03-02T04:18:13;34.47;;;18.15;;
3257;SDS011;1641;51.306;12.384;2024-03-02T04:20:38;36.53;;;18.67;;
3257;SDS011;1641;51.306;12.384;2024-03-02T04:23:03;36.67;;;18.50;;
3257;SDS011;1641;51.306;12.384;2024-03-02T04:25:29;35.13;;;19.20;;
3257;SDS011;1641;51.306;12.384;2024-03-02T04:27:54;35.53;;;18.90;;
3257;SDS011;1641;51.306;12.384;2024-03-02T04:30:19;36.60;;;19.70;;
3257;SDS011;1641;51.306;12.384;2024-03-02T04:32:44;39.78;;;18.17;;
3257;SDS011;1641;51.306;12.384;2024-03-02T04:35:11;39.95;;;19.73;;
3257;SDS011;1641;51.306;12.384;2024-03-02T04:37:37;34.53;;;19.30;;
3257;SDS011;1641;51.306;12.384;2024-03-02T04:40:03;35.72;;;19.60;;
3257;SDS011;1641;51.306;12.384;2024-03-02T04:42:30;38.70;;;19.42;;
3257;SDS011;1641;51.306;12.384;2024-03-02T04:44:55;39.50;;;20.52;;
3257;SDS011;1641;51.306;12.384;2024-03-02T04:47:21;40.15;;;19.30;;
3257;SDS011;1641;51.306;12.384;2024-03-02T04:49:46;34.28;;;20.13;;
3257;SDS011;1641;51.306;12.384;2024-03-02T04:52:11;34.85;;;18.20;;
3257;SDS011;1641;51.306;12.384;2024-03-02T04:54:36;38.38;;;18.77;;
3257;SDS011;1641;51.306;12.384;2024-03-02T04:57:21;33.95;;;18.17;;
3257;SDS011;1641;51.306;12.384;2024-03-02T04:59:47;37.80;;;18.60;;
3257;SDS011;1641;51.306;12.384;2024-03-02T05:02:12;37.67;;;20.23;;
3257;SDS011;1641;51.306;12.384;2024-03-02T05:04:39;37.42;;;19.17;;
3257;SDS011;1641;51.306;12.384;2024-03-02T05:07:04;38.63;;;19.85;;
3257;SDS011;1641;51.306;12.384;2024-03-02T05:09:29;37.28;;;20.13;;
3257;SDS011;1641;51.306;12.384;2024-03-02T05:11:55;38.45;;;20.80;;
3257;SDS011;1641;51.306;12.384;2024-03-02T05:14:55;32.25;;;18.42;;
3257;SDS011;1641;51.306;12.384;2024-03-02T05:17:21;36.97;;;17.75;;
3257;SDS011;1641;51.306;12.384;2024-03-02T05:19:46;40.95;;;20.45;;
3257;SDS011;1641;51.306;12.384;2024-03-02T05:22:11;32.50;;;19.17;;
3257;SDS011;1641;51.306;12.384;2024-03-02T05:24:36;38.17;;;20.33;;
3257;SDS011;1641;51.306;12.384;2024-03-02T05:27:02;36.13;;;18.35;;
3257;SDS011;1641;51.306;12.384;2024-03-02T05:29:27;40.20;;;19.35;;
3257;SDS011;1641;51.306;12.384;2024-03-02T05:31:52;39.10;;;19.10;;
3257;SDS011;1641;51.306;12.384;2024-03-02T05:34:17;41.03;;;20.92;;
3257;SDS011;1641;51.306;12.384;2024-03-02T05:36:43;43.00;;;19.70;;
3257;SDS011;1641;51.306;12.384;2024-03-02T05:39:09;35.60;;;19.75;;
3257;SDS011;1641;51.306;12.384;2024-03-02T05:41:35;38.47;;;19.58;;
3257;SDS011;1641;51.306;12.384;2024-03-02T05:44:01;40.78;;;20.45;;
3257;SDS011;1641;51.306;12.384;2024-03-02T05:46:26;38.83;;;18.80;;
3257;SDS011;1641;51.306;12.384;2024-03-02T05:48:52;35.78;;;18.55;;
3257;SDS011;1641;51.306;12.384;2024-03-02T05:51:17;34.40;;;19.70;;
3257;SDS011;1641;51.306;12.384;2024-03-02T05:53:42;38.53;;;20.42;;
3257;SDS011;1641;51.306;12.384;2024-03-02T05:56:07;36.47;;;19.20;;
3257;SDS011;1641;51.306;12.384;2024-03-02T05:58:33;38.45;;;19.67;;
3257;SDS011;1641;51.306;12.384;2024-03-02T06:01:11;41.55;;;21.00;;
3257;SDS011;1641;51.306;12.384;2024-03-02T06:03:36;37.65;;;19.15;;
3257;SDS011;1641;51.306;12.384;2024-03-02T06:06:02;39.75;;;20.73;;
3257;SDS011;1641;51.306;12.384;2024-03-02T06:08:27;39.97;;;20.73;;
3257;SDS011;1641;51.306;12.384;2024-03-02T06:10:52;39.05;;;19.80;;
3257;SDS011;1641;51.306;12.384;2024-03-02T06:13:18;41.53;;;20.98;;
3257;SDS011;1641;51.306;12.384;2024-03-02T06:15:43;38.38;;;21.15;;
3257;SDS011;1641;51.306;12.384;2024-03-02T06:18:08;42.58;;;21.27;;
3257;SDS011;1641;51.306;12.384;2024-03-02T06:20:33;44.80;;;20.73;;
3257;SDS011;1641;51.306;12.384;2024-03-02T06:22:59;43.08;;;20.63;;
3257;SDS011;1641;51.306;12.384;2024-03-02T06:25:24;44.92;;;22.38;;
3257;SDS011;1641;51.306;12.384;2024-03-02T06:27:49;48.33;;;23.48;;
3257;SDS011;1641;51.306;12.384;2024-03-02T06:30:15;46.95;;;22.38;;
3257;SDS011;1641;51.306;12.384;2024-03-02T06:32:40;39.95;;;21.70;;
3257;SDS011;1641;51.306;12.384;2024-03-02T06:35:05;39.45;;;21.05;;
3257;SDS011;1641;51.306;12.384;2024-03-02T06:37:33;39.83;;;22.48;;
3257;SDS011;1641;51.306;12.384;2024-03-02T06:39:58;38.17;;;21.20;;
3257;SDS011;1641;51.306;12.384;2024-03-02T06:42:24;39.88;;;21.45;;
3257;SDS011;1641;51.306;12.384;2024-03-02T06:44:49;45.15;;;21.25;;
3257;SDS011;1641;51.306;12.384;2024-03-02T06:47:15;39.78;;;21.58;;
3257;SDS011;1641;51.306;12.384;2024-03-02T06:49:41;38.58;;;19.40;;
3257;SDS011;1641;51.306;12.384;2024-03-02T06:52:07;39.58;;;20.98;;
3257;SDS011;1641;51.306;12.384;2024-03-02T06:54:32;42.92;;;21.25;;
3257;SDS011;1641;51.306;12.384;2024-03-02T06:56:57;39.13;;;21.15;;
3257;SDS011;1641;51.306;12.384;2024-03-02T06:59:22;37.90;;;19.92;;
3257;SDS011;1641;51.306;12.384;2024-03-02T07:01:49;38.65;;;20.40;;
3257;SDS011;1641;51.306;12.384;2024-03-02T07:04:14;40.45;;;19.88;;
3257;SDS011;1641;51.306;12.384;2024-03-02T07:06:39;39.45;;;19.33;;
3257;SDS011;1641;51.306;12.384;2024-03-02T07:09:05;35.42;;;19.20;;
3257;SDS011;1641;51.306;12.384;2024-03-02T07:11:30;39.35;;;20.27;;
3257;SDS011;1641;51.306;12.384;2024-03-02T07:13:55;38.55;;;19.67;;
3257;SDS011;1641;51.306;12.384;2024-03-02T07:16:21;42.97;;;20.50;;
3257;SDS011;1641;51.306;12.384;2024-03-02T07:18:58;38.95;;;20.52;;
3257;SDS011;1641;51.306;12.384;2024-03-02T07:21:24;38.42;;;20.60;;
3257;SDS011;1641;51.306;12.384;2024-03-02T07:23:49;31.08;;;19.23;;
3257;SDS011;1641;51.306;12.384;2024-03-02T07:26:15;37.38;;;19.05;;
3257;SDS011;1641;51.306;12.384;2024-03-02T07:28:40;35.30;;;18.85;;
3257;SDS011;1641;51.306;12.384;2024-03-02T07:31:06;40.85;;;20.48;;
3257;SDS011;1641;51.306;12.384;2024-03-02T07:33:32;39.00;;;20.45;;
3257;SDS011;1641;51.306;12.384;2024-03-02T07:35:58;36.65;;;20.67;;
3257;SDS011;1641;51.306;12.384;2024-03-02T07:38:27;40.80;;;21.48;;
3257;SDS011;1641;51.306;12.384;2024-03-02T07:40:53;35.92;;;19.50;;
3257;SDS011;1641;51.306;12.384;2024-03-02T07:43:20;50.42;;;29.60;;
3257;SDS011;1641;51.306;12.384;2024-03-02T07:45:46;38.33;;;20.55;;
3257;SDS011;1641;51.306;12.384;2024-03-02T07:48:11;72.85;;;39.60;;
3257;SDS011;1641;51.306;12.384;2024-03-02T07:50:37;45.03;;;23.27;;
3257;SDS011;1641;51.306;12.384;2024-03-02T07:53:06;61.15;;;31.05;;
3257;SDS011;1641;51.306;12.384;2024-03-02T07:55:33;35.03;;;20.05;;
3257;SDS011;1641;51.306;12.384;2024-03-02T07:58:01;43.17;;;23.73;;
3257;SDS011;1641;51.306;12.384;2024-03-02T08:00:27;38.50;;;19.63;;
3257;SDS011;1641;51.306;12.384;2024-03-02T08:02:53;36.10;;;20.58;;
3257;SDS011;1641;51.306;12.384;2024-03-02T08:05:25;38.67;;;20.30;;
3257;SDS011;1641;51.306;12.384;2024-03-02T08:07:50;38.80;;;19.27;;
3257;SDS011;1641;51.306;12.384;2024-03-02T08:10:20;38.38;;;21.10;;
3257;SDS011;1641;51.306;12.384;2024-03-02T08:12:46;33.97;;;19.38;;
3257;SDS011;1641;51.306;12.384;2024-03-02T08:15:14;39.75;;;21.05;;
3257;SDS011;1641;51.306;12.384;2024-03-02T08:17:43;37.08;;;20.88;;
3257;SDS011;1641;51.306;12.384;2024-03-02T08:20:13;36.55;;;18.33;;
3257;SDS011;1641;51.306;12.384;2024-03-02T08:22:39;39.22;;;21.83;;
3257;SDS011;1641;51.306;12.384;2024-03-02T08:25:04;40.20;;;19.02;;
3257;SDS011;1641;51.306;12.384;2024-03-02T08:27:30;35.25;;;20.17;;
3257;SDS011;1641;51.306;12.384;2024-03-02T08:29:57;35.47;;;19.35;;
3257;SDS011;1641;51.306;12.384;2024-03-02T08:32:28;35.25;;;18.63;;
3257;SDS011;1641;51.306;12.384;2024-03-02T08:34:53;33.58;;;18.27;;
3257;SDS011;1641;51.306;12.384;2024-03-02T08:37:19;33.05;;;18.27;;
3257;SDS011;1641;51.306;12.384;2024-03-02T08:39:45;38.95;;;20.65;;
3257;SDS011;1641;51.306;12.384;2024-03-02T08:42:10;34.97;;;20.63;;
3257;SDS011;1641;51.306;12.384;2024-03-02T08:44:36;37.95;;;20.33;;
3257;SDS011;1641;51.306;12.384;2024-03-02T08:47:01;40.08;;;20.83;;
3257;SDS011;1641;51.306;12.384;2024-03-02T08:49:27;40.17;;;20.08;;
3257;SDS011;1641;51.306;12.384;2024-03-02T08:51:55;39.22;;;23.70;;
3257;SDS011;1641;51.306;12.384;2024-03-02T08:54:26;37.80;;;20.17;;
3257;SDS011;1641;51.306;12.384;2024-03-02T08:56:55;38.05;;;20.45;;
3257;SDS011;1641;51.306;12.384;2024-03-02T08:59:21;38.95;;;20.33;;
3257;SDS011;1641;51.306;12.384;2024-03-02T09:01:49;37.42;;;19.85;;
3257;SDS011;1641;51.306;12.384;2024-03-02T09:04:15;34.55;;;20.05;;
3257;SDS011;1641;51.306;12.384;2024-03-02T09:06:40;35.30;;;19.25;;
3257;SDS011;1641;51.306;12.384;2024-03-02T09:09:06;34.45;;;18.23;;
3257;SDS011;1641;51.306;12.384;2024-03-02T09:11:31;37.08;;;20.23;;
3257;SDS011;1641;51.306;12.384;2024-03-02T09:14:03;35.88;;;18.88;;
3257;SDS011;1641;51.306;12.384;2024-03-02T09:16:28;35.65;;;21.08;;
3257;SDS011;1641;51.306;12.384;2024-03-02T09:18:56;36.50;;;19.40;;
3257;SDS011;1641;51.306;12.384;2024-03-02T09:21:24;39.05;;;20.58;;
3257;SDS011;1641;51.306;12.384;2024-03-02T09:23:50;31.25;;;18.48;;
3257;SDS011;1641;51.306;12.384;2024-03-02T09:26:15;31.92;;;17.17;;
3257;SDS011;1641;51.306;12.384;2024-03-02T09:28:44;31.27;;;18.70;;
3257;SDS011;1641;51.306;12.384;2024-03-02T09:31:10;32.42;;;19.27;;
3257;SDS011;1641;51.306;12.384;2024-03-02T09:33:35;30.80;;;17.42;;
3257;SDS011;1641;51.306;12.384;2024-03-02T09:36:00;29.50;;;17.13;;
3257;SDS011;1641;51.306;12.384;2024-03-02T09:38:26;35.00;;;18.23;;
3257;SDS011;1641;51.306;12.384;2024-03-02T09:40:51;29.27;;;18.10;;
3257;SDS011;1641;51.306;12.384;2024-03-02T09:43:19;27.33;;;16.48;;
3257;SDS011;1641;51.306;12.384;2024-03-02T09:45:45;31.42;;;17.00;;
3257;SDS011;1641;51.306;12.384;2024-03-02T09:48:10;32.30;;;17.45;;
3257;SDS011;1641;51.306;12.384;2024-03-02T09:50:36;29.90;;;16.92;;
3257;SDS011;1641;51.306;12.384;2024-03-02T09:53:01;30.40;;;15.85;;
3257;SDS011;1641;51.306;12.384;2024-03-02T09:55:27;27.40;;;14.45;;
3257;SDS011;1641;51.306;12.384;2024-03-02T09:57:56;27.42;;;16.38;;
3257;SDS011;1641;51.306;12.384;2024-03-02T10:00:21;27.70;;;15.75;;
3257;SDS011;1641;51.306;12.384;2024-03-02T10:02:46;26.92;;;15.50;;
3257;SDS011;1641;51.306;12.384;2024-03-02T10:05:14;27.17;;;16.10;;
3257;SDS011;1641;51.306;12.384;2024-03-02T10:07:58;25.30;;;15.65;;
3257;SDS011;1641;51.306;12.384;2024-03-02T10:10:26;23.17;;;14.88;;
3257;SDS011;1641;51.306;12.384;2024-03-02T10:13:09;23.17;;;14.18;;
3257;SDS011;1641;51.306;12.384;2024-03-02T10:15:36;25.52;;;15.02;;
3257;SDS011;1641;51.306;12.384;2024-03-02T10:18:03;26.02;;;14.43;;
3257;SDS011;1641;51.306;12.384;2024-03-02T10:20:35;22.27;;;14.07;;
3257;SDS011;1641;51.306;12.384;2024-03-02T10:23:10;22.45;;;13.93;;
3257;SDS011;1641;51.306;12.384;2024-03-02T10:25:40;24.83;;;14.70;;
3257;SDS011;1641;51.306;12.384;2024-03-02T10:28:12;21.17;;;13.80;;
3257;SDS011;1641;51.306;12.384;2024-03-02T10:33:03;22.52;;;13.50;;
3257;SDS011;1641;51.306;12.384;2024-03-02T10:35:33;21.25;;;11.90;;
3257;SDS011;1641;51.306;12.384;2024-03-02T10:38:19;19.83;;;13.13;;
3257;SDS011;1641;51.306;12.384;2024-03-02T10:40:48;20.10;;;12.07;;
3257;SDS011;1641;51.306;12.384;2024-03-02T10:43:17;17.30;;;10.77;;
3257;SDS011;1641;51.306;12.384;2024-03-02T10:45:44;18.20;;;11.60;;
3257;SDS011;1641;51.306;12.384;2024-03-02T10:48:12;15.55;;;10.82;;
3257;SDS011;1641;51.306;12.384;2024-03-02T10:50:37;18.58;;;12.48;;
3257;SDS011;1641;51.306;12.384;2024-03-02T10:53:05;14.93;;;9.25;;
3257;SDS011;1641;51.306;12.384;2024-03-02T10:55:31;22.05;;;13.07;;
3257;SDS011;1641;51.306;12.384;2024-03-02T10:57:57;18.63;;;10.38;;
3257;SDS011;1641;51.306;12.384;2024-03-02T11:00:38;16.50;;;10.65;;
3257;SDS011;1641;51.306;12.384;2024-03-02T11:03:07;25.35;;;15.93;;
3257;SDS011;1641;51.306;12.384;2024-03-02T11:05:41;15.25;;;9.13;;
3257;SDS011;1641;51.306;12.384;2024-03-02T11:08:13;24.40;;;14.55;;
3257;SDS011;1641;51.306;12.384;2024-03-02T11:10:59;15.18;;;9.65;;
3257;SDS011;1641;51.306;12.384;2024-03-02T11:13:32;14.50;;;10.55;;
3257;SDS011;1641;51.306;12.384;2024-03-02T11:16:09;15.38;;;9.75;;
3257;SDS011;1641;51.306;12.384;2024-03-02T11:18:41;17.98;;;12.45;;
3257;SDS011;1641;51.306;12.384;2024-03-02T11:21:25;15.73;;;9.73;;
3257;SDS011;1641;51.306;12.384;2024-03-02T11:23:51;26.05;;;11.68;;
3257;SDS011;1641;51.306;12.384;2024-03-02T11:26:22;15.63;;;9.50;;
3257;SDS011;1641;51.306;12.384;2024-03-02T11:28:49;16.20;;;9.20;;
3257;SDS011;1641;51.306;12.384;2024-03-02T11:31:54;12.18;;;8.75;;
3257;SDS011;1641;51.306;12.384;2024-03-02T11:34:30;16.65;;;8.57;;
3257;SDS011;1641;51.306;12.384;2024-03-02T11:36:56;13.63;;;8.73;;
3257;SDS011;1641;51.306;12.384;2024-03-02T11:42:14;13.43;;;8.57;;
3257;SDS011;1641;51.306;12.384;2024-03-02T11:44:41;13.65;;;8.20;;
3257;SDS011;1641;51.306;12.384;2024-03-02T11:47:12;12.90;;;8.30;;
3257;SDS011;1641;51.306;12.384;2024-03-02T11:49:40;10.52;;;7.28;;
3257;SDS011;1641;51.306;12.384;2024-03-02T11:52:16;12.18;;;7.43;;
3257;SDS011;1641;51.306;12.384;2024-03-02T11:54:52;13.60;;;8.07;;
3257;SDS011;1641;51.306;12.384;2024-03-02T11:57:19;17.25;;;10.93;;
3257;SDS011;1641;51.306;12.384;2024-03-02T11:59:56;11.65;;;8.00;;
3257;SDS011;1641;51.306;12.384;2024-03-02T12:02:22;10.43;;;7.20;;
3257;SDS011;1641;51.306;12.384;2024-03-02T12:04:48;12.90;;;7.72;;
3257;SDS011;1641;51.306;12.384;2024-03-02T12:07:23;10.93;;;7.50;;
3257;SDS011;1641;51.306;12.384;2024-03-02T12:09:58;9.23;;;7.45;;
3257;SDS011;1641;51.306;12.384;2024-03-02T12:12:25;12.63;;;6.32;;
3257;SDS011;1641;51.306;12.384;2024-03-02T12:14:57;9.85;;;6.75;;
3257;SDS011;1641;51.306;12.384;2024-03-02T12:17:25;7.57;;;5.60;;
3257;SDS011;1641;51.306;12.384;2024-03-02T12:19:50;10.65;;;7.45;;
3257;SDS011;1641;51.306;12.384;2024-03-02T12:22:18;13.77;;;9.02;;
3257;SDS011;1641;51.306;12.384;2024-03-02T12:24:44;11.38;;;7.57;;
3257;SDS011;1641;51.306;12.384;2024-03-02T12:27:11;15.98;;;8.25;;
3257;SDS011;1641;51.306;12.384;2024-03-02T12:29:37;12.77;;;9.25;;
3257;SDS011;1641;51.306;12.384;2024-03-02T12:32:06;12.43;;;7.25;;
3257;SDS011;1641;51.306;12.384;2024-03-02T12:34:38;10.05;;;7.07;;
3257;SDS011;1641;51.306;12.384;2024-03-02T12:37:03;8.95;;;6.15;;
3257;SDS011;1641;51.306;12.384;2024-03-02T12:39:37;19.33;;;11.02;;
3257;SDS011;1641;51.306;12.384;2024-03-02T12:42:03;10.40;;;6.82;;
3257;SDS011;1641;51.306;12.384;2024-03-02T12:44:28;9.75;;;7.38;;
3257;SDS011;1641;51.306;12.384;2024-03-02T12:46:56;14.65;;;9.73;;
3257;SDS011;1641;51.306;12.384;2024-03-02T12:49:28;10.65;;;7.55;;
3257;SDS011;1641;51.306;12.384;2024-03-02T12:51:55;13.18;;;8.20;;
3257;SDS011;1641;51.306;12.384;2024-03-02T12:54:22;10.38;;;7.03;;
3257;SDS011;1641;51.306;12.384;2024-03-02T12:56:52;9.43;;;6.82;;
3257;SDS011;1641;51.306;12.384;2024-03-02T12:59:19;9.85;;;6.65;;
3257;SDS011;1641;51.306;12.384;2024-03-02T13:01:53;12.07;;;7.32;;
3257;SDS011;1641;51.306;12.384;2024-03-02T13:04:22;11.07;;;7.13;;
3257;SDS011;1641;51.306;12.384;2024-03-02T13:06:49;12.25;;;7.78;;
3257;SDS011;1641;51.306;12.384;2024-03-02T13:09:15;10.70;;;6.97;;
3257;SDS011;1641;51.306;12.384;2024-03-02T13:11:41;8.18;;;6.13;;
3257;SDS011;1641;51.306;12.384;2024-03-02T13:14:07;8.77;;;6.47;;
3257;SDS011;1641;51.306;12.384;2024-03-02T13:16:39;10.30;;;6.30;;
3257;SDS011;1641;51.306;12.384;2024-03-02T13:19:11;11.20;;;6.75;;
3257;SDS011;1641;51.306;12.384;2024-03-02T13:21:38;8.48;;;6.00;;
3257;SDS011;1641;51.306;12.384;2024-03-02T13:24:15;9.63;;;6.45;;
3257;SDS011;1641;51.306;12.384;2024-03-02T13:26:41;8.93;;;6.40;;
3257;SDS011;1641;51.306;12.384;2024-03-02T13:29:06;11.35;;;7.55;;
3257;SDS011;1641;51.306;12.384;2024-03-02T13:31:32;8.73;;;7.05;;
3257;SDS011;1641;51.306;12.384;2024-03-02T13:33:58;10.32;;;7.28;;
3257;SDS011;1641;51.306;12.384;2024-03-02T13:36:23;9.50;;;5.57;;
3257;SDS011;1641;51.306;12.384;2024-03-02T13:38:49;9.02;;;5.55;;
3257;SDS011;1641;51.306;12.384;2024-03-02T13:41:14;9.23;;;5.97;;
3257;SDS011;1641;51.306;12.384;2024-03-02T13:43:39;9.95;;;7.20;;
3257;SDS011;1641;51.306;12.384;2024-03-02T13:46:08;9.35;;;6.55;;
3257;SDS011;1641;51.306;12.384;2024-03-02T13:48:34;10.90;;;6.47;;
3257;SDS011;1641;51.306;12.384;2024-03-02T13:51:01;10.75;;;7.18;;
3257;SDS011;1641;51.306;12.384;2024-03-02T13:53:26;9.02;;;7.30;;
3257;SDS011;1641;51.306;12.384;2024-03-02T13:55:51;9.32;;;7.10;;
3257;SDS011;1641;51.306;12.384;2024-03-02T13:58:17;10.23;;;6.13;;
3257;SDS011;1641;51.306;12.384;2024-03-02T14:00:43;7.70;;;5.55;;
3257;SDS011;1641;51.306;12.384;2024-03-02T14:03:10;7.82;;;5.47;;
3257;SDS011;1641;51.306;12.384;2024-03-02T14:05:35;7.85;;;5.65;;
3257;SDS011;1641;51.306;12.384;2024-03-02T14:08:02;9.35;;;5.72;;
3257;SDS011;1641;51.306;12.384;2024-03-02T14:10:27;8.73;;;6.00;;
3257;SDS011;1641;51.306;12.384;2024-03-02T14:12:53;8.52;;;4.80;;
3257;SDS011;1641;51.306;12.384;2024-03-02T14:15:20;8.60;;;5.10;;
3257;SDS011;1641;51.306;12.384;2024-03-02T14:17:45;7.00;;;4.82;;
3257;SDS011;1641;51.306;12.384;2024-03-02T14:20:11;7.20;;;5.28;;
3257;SDS011;1641;51.306;12.384;2024-03-02T14:22:38;6.15;;;4.70;;
3257;SDS011;1641;51.306;12.384;2024-03-02T14:25:03;6.65;;;5.03;;
3257;SDS011;1641;51.306;12.384;2024-03-02T14:27:29;6.28;;;4.90;;
3257;SDS011;1641;51.306;12.384;2024-03-02T14:29:54;7.47;;;5.43;;
3257;SDS011;1641;51.306;12.384;2024-03-02T14:32:20;8.00;;;5.80;;
3257;SDS011;1641;51.306;12.384;2024-03-02T14:34:45;8.32;;;5.07;;
3257;SDS011;1641;51.306;12.384;2024-03-02T14:37:11;7.70;;;4.57;;
3257;SDS011;1641;51.306;12.384;2024-03-02T14:39:38;7.40;;;4.85;;
3257;SDS011;1641;51.306;12.384;2024-03-02T14:42:04;6.70;;;4.70;;
3257;SDS011;1641;51.306;12.384;2024-03-02T14:44:29;6.28;;;4.72;;
3257;SDS011;1641;51.306;12.384;2024-03-02T14:46:55;7.05;;;4.53;;